메인 페이지
METAR-TAF:

METAR-TAF

공항 :

파고파고, 미국령 군소 제도

위도: 14-20S, 경도: 170-43W, 고도: 3m

현재 날씨관측

예보는 40분 전, 16:51시(UTC)에 발표되었습니다.
남남동11kt
온도 26°C
습도 84%
기압 1013 hPa
시정: 17.7km
고도 1800ft 상공 구름 조금
고도 4000ft 상공 구름 보통
고도 10000ft 상공 구름 많음
고도 20000ft 상공 구름 많음

METAR: NSTU 171651Z 16011KT 11SM FEW018 SCT040 BKN100 BKN200 26/23 A2990 RMK SLP127 T02560233

시각: 06:31 (17:31 UTC)

예보

예보는 21분 전, 17:10시(UTC)에 발표되었습니다.
예보 대상 시간: 17일 17시부터 18일 12시까지 (UTC)
동남동13kt
시정: 10km
고도 1800ft 상공 구름 조금
고도 4000ft 상공 구름 보통
고도 10000ft 상공 구름 많음
시계 내 소나기
일시적
17일 17시부터 17일 19시까지 (UTC)
남남동11kt
시정: 9.7km
고도 1300ft 상공 구름 보통
고도 4000ft 상공 구름 많음
약한소나기

TAF: NSTU 171710Z 1717/1812 11013KT P6SM VCSH FEW018 SCT040 BKN100 TEMPO 1717/1719 16011KT 6SM -SHRA SCT013 BKN040

4,000개 이상의 공항 관측 자료 및 예보 (METAR 및 TAF 보고).

지도상에서 검색 가능한 기상관측소가 노란 점과 빨간 점으로 표시되어 있습니다.

기상관측소 명을 보려면 표시 위로 마우스를 이동하세요.

날씨 관측과 예보를 보려면 클릭하세요.

지도 변경 : 확대하려면 엑스 표시가 있는 녹색 버튼, 축소하려면 빼기 표시가 있는 녹색 버튼, 다음 페이지의 지도를 보려면 녹색 화살표를 클릭하세요.


METAR-TAF: